sensor_id;sensor_type;location;lat;lon;timestamp;temperature;humidity
13354;DHT22;6746;50.892;4.064;2022-07-04T00:01:20;14.50;99.90
13354;DHT22;6746;50.892;4.064;2022-07-04T00:03:58;14.40;99.90
13354;DHT22;6746;50.892;4.064;2022-07-04T00:06:44;14.40;99.90
13354;DHT22;6746;50.892;4.064;2022-07-04T00:09:22;14.30;99.90
13354;DHT22;6746;50.892;4.064;2022-07-04T00:12:10;14.30;99.90
13354;DHT22;6746;50.892;4.064;2022-07-04T00:14:51;14.20;99.90
13354;DHT22;6746;50.892;4.064;2022-07-04T00:17:29;14.20;99.90
13354;DHT22;6746;50.892;4.064;2022-07-04T00:20:08;14.20;99.90
13354;DHT22;6746;50.892;4.064;2022-07-04T00:22:46;14.10;99.90
13354;DHT22;6746;50.892;4.064;2022-07-04T00:25:29;14.10;99.90
13354;DHT22;6746;50.892;4.064;2022-07-04T00:28:08;14.10;99.90
13354;DHT22;6746;50.892;4.064;2022-07-04T00:30:49;14.00;99.90
13354;DHT22;6746;50.892;4.064;2022-07-04T00:33:27;14.00;99.90
13354;DHT22;6746;50.892;4.064;2022-07-04T00:36:14;14.00;99.90
13354;DHT22;6746;50.892;4.064;2022-07-04T00:38:52;14.00;99.90
13354;DHT22;6746;50.892;4.064;2022-07-04T00:41:31;14.00;99.90
13354;DHT22;6746;50.892;4.064;2022-07-04T00:44:14;13.90;99.90
13354;DHT22;6746;50.892;4.064;2022-07-04T00:46:55;13.80;99.90
13354;DHT22;6746;50.892;4.064;2022-07-04T00:49:33;13.80;99.90
13354;DHT22;6746;50.892;4.064;2022-07-04T00:52:12;13.70;99.90
13354;DHT22;6746;50.892;4.064;2022-07-04T00:54:52;13.60;99.90
13354;DHT22;6746;50.892;4.064;2022-07-04T00:57:30;13.60;99.90
13354;DHT22;6746;50.892;4.064;2022-07-04T01:00:17;13.50;99.90
13354;DHT22;6746;50.892;4.064;2022-07-04T01:02:54;13.50;99.90
13354;DHT22;6746;50.892;4.064;2022-07-04T01:05:35;13.40;99.90
13354;DHT22;6746;50.892;4.064;2022-07-04T01:08:13;13.40;99.90
13354;DHT22;6746;50.892;4.064;2022-07-04T01:10:59;13.40;99.90
13354;DHT22;6746;50.892;4.064;2022-07-04T01:13:37;13.40;99.90
13354;DHT22;6746;50.892;4.064;2022-07-04T01:16:25;13.40;99.90
13354;DHT22;6746;50.892;4.064;2022-07-04T01:19:11;13.30;99.90
13354;DHT22;6746;50.892;4.064;2022-07-04T01:21:49;13.20;99.90
13354;DHT22;6746;50.892;4.064;2022-07-04T01:24:27;13.20;99.90
13354;DHT22;6746;50.892;4.064;2022-07-04T01:27:05;13.20;99.90
13354;DHT22;6746;50.892;4.064;2022-07-04T01:29:46;13.20;99.90
13354;DHT22;6746;50.892;4.064;2022-07-04T01:32:24;13.20;99.90
13354;DHT22;6746;50.892;4.064;2022-07-04T01:35:02;13.20;99.90
13354;DHT22;6746;50.892;4.064;2022-07-04T01:37:40;13.20;99.90
13354;DHT22;6746;50.892;4.064;2022-07-04T01:40:28;13.20;99.90
13354;DHT22;6746;50.892;4.064;2022-07-04T01:43:15;13.10;99.90
13354;DHT22;6746;50.892;4.064;2022-07-04T01:45:54;13.00;99.90
13354;DHT22;6746;50.892;4.064;2022-07-04T01:48:33;13.10;99.90
13354;DHT22;6746;50.892;4.064;2022-07-04T01:51:11;13.10;99.90
13354;DHT22;6746;50.892;4.064;2022-07-04T01:53:49;13.10;99.90
13354;DHT22;6746;50.892;4.064;2022-07-04T01:56:27;13.00;99.90
13354;DHT22;6746;50.892;4.064;2022-07-04T01:59:05;13.00;99.90
13354;DHT22;6746;50.892;4.064;2022-07-04T02:01:46;13.00;99.90
13354;DHT22;6746;50.892;4.064;2022-07-04T02:04:24;13.00;99.90
13354;DHT22;6746;50.892;4.064;2022-07-04T02:07:02;13.00;99.90
13354;DHT22;6746;50.892;4.064;2022-07-04T02:09:40;12.90;99.90
13354;DHT22;6746;50.892;4.064;2022-07-04T02:12:18;12.90;99.90
13354;DHT22;6746;50.892;4.064;2022-07-04T02:15:14;12.90;99.90
13354;DHT22;6746;50.892;4.064;2022-07-04T02:17:55;12.90;99.90
13354;DHT22;6746;50.892;4.064;2022-07-04T02:20:33;13.00;99.90
13354;DHT22;6746;50.892;4.064;2022-07-04T02:23:13;13.00;99.90
13354;DHT22;6746;50.892;4.064;2022-07-04T02:25:52;13.00;99.90
13354;DHT22;6746;50.892;4.064;2022-07-04T02:28:30;13.00;99.90
13354;DHT22;6746;50.892;4.064;2022-07-04T02:31:08;12.90;99.90
13354;DHT22;6746;50.892;4.064;2022-07-04T02:33:46;12.90;99.90
13354;DHT22;6746;50.892;4.064;2022-07-04T02:36:24;12.80;99.90
13354;DHT22;6746;50.892;4.064;2022-07-04T02:39:02;12.80;99.90
13354;DHT22;6746;50.892;4.064;2022-07-04T02:41:40;12.70;99.90
13354;DHT22;6746;50.892;4.064;2022-07-04T02:44:28;12.70;99.90
13354;DHT22;6746;50.892;4.064;2022-07-04T02:47:06;12.60;99.90
13354;DHT22;6746;50.892;4.064;2022-07-04T02:49:44;12.60;99.90
13354;DHT22;6746;50.892;4.064;2022-07-04T02:52:22;12.60;99.90
13354;DHT22;6746;50.892;4.064;2022-07-04T02:55:00;12.50;99.90
13354;DHT22;6746;50.892;4.064;2022-07-04T02:57:38;12.40;99.90
13354;DHT22;6746;50.892;4.064;2022-07-04T03:00:16;12.40;99.90
13354;DHT22;6746;50.892;4.064;2022-07-04T03:03:04;12.40;99.90
13354;DHT22;6746;50.892;4.064;2022-07-04T03:05:42;12.40;99.90
13354;DHT22;6746;50.892;4.064;2022-07-04T03:08:20;12.30;99.90
13354;DHT22;6746;50.892;4.064;2022-07-04T03:11:01;12.30;99.90
13354;DHT22;6746;50.892;4.064;2022-07-04T03:13:39;12.20;99.90
13354;DHT22;6746;50.892;4.064;2022-07-04T03:16:25;12.20;99.90
13354;DHT22;6746;50.892;4.064;2022-07-04T03:19:03;12.20;99.90
13354;DHT22;6746;50.892;4.064;2022-07-04T03:21:41;12.20;99.90
13354;DHT22;6746;50.892;4.064;2022-07-04T03:24:19;12.30;99.90
13354;DHT22;6746;50.892;4.064;2022-07-04T03:27:07;12.20;99.90
13354;DHT22;6746;50.892;4.064;2022-07-04T03:29:45;12.20;99.90
13354;DHT22;6746;50.892;4.064;2022-07-04T03:32:23;12.20;99.90
13354;DHT22;6746;50.892;4.064;2022-07-04T03:35:11;12.20;99.90
13354;DHT22;6746;50.892;4.064;2022-07-04T03:37:58;12.20;99.90
13354;DHT22;6746;50.892;4.064;2022-07-04T03:40:46;12.20;99.90
13354;DHT22;6746;50.892;4.064;2022-07-04T03:43:25;12.20;99.90
13354;DHT22;6746;50.892;4.064;2022-07-04T03:46:03;12.20;99.90
13354;DHT22;6746;50.892;4.064;2022-07-04T03:48:41;12.20;99.90
13354;DHT22;6746;50.892;4.064;2022-07-04T03:51:19;12.20;99.90
13354;DHT22;6746;50.892;4.064;2022-07-04T03:53:53;12.20;99.90
13354;DHT22;6746;50.892;4.064;2022-07-04T03:56:21;12.20;99.90
13354;DHT22;6746;50.892;4.064;2022-07-04T03:58:59;12.30;99.90
13354;DHT22;6746;50.892;4.064;2022-07-04T04:01:37;12.30;99.90
13354;DHT22;6746;50.892;4.064;2022-07-04T04:04:25;12.30;99.90
13354;DHT22;6746;50.892;4.064;2022-07-04T04:07:21;12.40;99.90
13354;DHT22;6746;50.892;4.064;2022-07-04T04:09:57;12.40;99.90
13354;DHT22;6746;50.892;4.064;2022-07-04T04:12:25;12.40;99.90
13354;DHT22;6746;50.892;4.064;2022-07-04T04:15:03;12.50;99.90
13354;DHT22;6746;50.892;4.064;2022-07-04T04:17:41;12.50;99.90
13354;DHT22;6746;50.892;4.064;2022-07-04T04:20:19;12.60;99.90
13354;DHT22;6746;50.892;4.064;2022-07-04T04:22:57;12.70;99.90
13354;DHT22;6746;50.892;4.064;2022-07-04T04:25:40;12.70;99.90
13354;DHT22;6746;50.892;4.064;2022-07-04T04:28:09;12.70;99.90
13354;DHT22;6746;50.892;4.064;2022-07-04T04:30:37;12.80;99.90
13354;DHT22;6746;50.892;4.064;2022-07-04T04:33:05;12.80;99.90
13354;DHT22;6746;50.892;4.064;2022-07-04T04:35:42;12.90;99.90
13354;DHT22;6746;50.892;4.064;2022-07-04T04:38:10;13.00;99.90
13354;DHT22;6746;50.892;4.064;2022-07-04T04:40:41;13.30;99.90
13354;DHT22;6746;50.892;4.064;2022-07-04T04:43:10;13.70;99.90
13354;DHT22;6746;50.892;4.064;2022-07-04T04:45:39;14.50;99.90
13354;DHT22;6746;50.892;4.064;2022-07-04T04:48:08;15.20;99.90
13354;DHT22;6746;50.892;4.064;2022-07-04T04:50:47;15.80;99.90
13354;DHT22;6746;50.892;4.064;2022-07-04T04:53:15;16.50;99.90
13354;DHT22;6746;50.892;4.064;2022-07-04T04:55:55;17.10;99.90
13354;DHT22;6746;50.892;4.064;2022-07-04T04:58:33;17.30;99.90
13354;DHT22;6746;50.892;4.064;2022-07-04T05:01:06;17.70;99.90
13354;DHT22;6746;50.892;4.064;2022-07-04T05:03:35;18.00;99.90
13354;DHT22;6746;50.892;4.064;2022-07-04T05:06:19;18.30;99.90
13354;DHT22;6746;50.892;4.064;2022-07-04T05:08:48;18.60;99.90
13354;DHT22;6746;50.892;4.064;2022-07-04T05:11:20;19.10;99.90
13354;DHT22;6746;50.892;4.064;2022-07-04T05:13:49;19.30;99.90
13354;DHT22;6746;50.892;4.064;2022-07-04T05:16:27;19.60;99.90
13354;DHT22;6746;50.892;4.064;2022-07-04T05:19:05;19.50;99.90
13354;DHT22;6746;50.892;4.064;2022-07-04T05:21:43;19.70;99.90
13354;DHT22;6746;50.892;4.064;2022-07-04T05:24:22;19.70;99.90
13354;DHT22;6746;50.892;4.064;2022-07-04T05:27:08;19.70;99.90
13354;DHT22;6746;50.892;4.064;2022-07-04T05:29:46;19.70;99.90
13354;DHT22;6746;50.892;4.064;2022-07-04T05:32:24;19.90;99.90
13354;DHT22;6746;50.892;4.064;2022-07-04T05:34:53;19.90;99.90
13354;DHT22;6746;50.892;4.064;2022-07-04T05:37:22;20.10;99.90
13354;DHT22;6746;50.892;4.064;2022-07-04T05:39:53;20.50;99.90
13354;DHT22;6746;50.892;4.064;2022-07-04T05:42:28;20.70;99.90
13354;DHT22;6746;50.892;4.064;2022-07-04T05:45:00;20.70;99.90
13354;DHT22;6746;50.892;4.064;2022-07-04T05:47:29;20.60;99.90
13354;DHT22;6746;50.892;4.064;2022-07-04T05:50:01;20.90;99.90
13354;DHT22;6746;50.892;4.064;2022-07-04T05:52:29;20.80;99.90
13354;DHT22;6746;50.892;4.064;2022-07-04T05:55:08;20.90;99.90
13354;DHT22;6746;50.892;4.064;2022-07-04T05:57:47;20.70;99.90
13354;DHT22;6746;50.892;4.064;2022-07-04T06:00:15;20.30;99.90
13354;DHT22;6746;50.892;4.064;2022-07-04T06:02:44;20.60;99.90
13354;DHT22;6746;50.892;4.064;2022-07-04T06:05:13;20.90;99.90
13354;DHT22;6746;50.892;4.064;2022-07-04T06:07:42;20.90;99.90
13354;DHT22;6746;50.892;4.064;2022-07-04T06:10:11;21.00;99.90
13354;DHT22;6746;50.892;4.064;2022-07-04T06:12:43;21.20;99.90
13354;DHT22;6746;50.892;4.064;2022-07-04T06:15:11;21.30;99.90
13354;DHT22;6746;50.892;4.064;2022-07-04T06:17:41;21.40;99.90
13354;DHT22;6746;50.892;4.064;2022-07-04T06:20:10;21.70;99.90
13354;DHT22;6746;50.892;4.064;2022-07-04T06:22:44;21.50;99.90
13354;DHT22;6746;50.892;4.064;2022-07-04T06:25:13;21.40;99.90
13354;DHT22;6746;50.892;4.064;2022-07-04T06:27:42;21.50;99.90
13354;DHT22;6746;50.892;4.064;2022-07-04T06:30:12;21.40;99.90
13354;DHT22;6746;50.892;4.064;2022-07-04T06:32:52;21.40;99.90
13354;DHT22;6746;50.892;4.064;2022-07-04T06:35:21;21.50;99.90
13354;DHT22;6746;50.892;4.064;2022-07-04T06:38:13;21.40;99.90
13354;DHT22;6746;50.892;4.064;2022-07-04T06:40:41;21.70;99.90
13354;DHT22;6746;50.892;4.064;2022-07-04T06:43:12;22.00;99.90
13354;DHT22;6746;50.892;4.064;2022-07-04T06:45:41;22.20;99.90
13354;DHT22;6746;50.892;4.064;2022-07-04T06:48:15;22.30;99.90
13354;DHT22;6746;50.892;4.064;2022-07-04T06:50:44;22.30;99.90
13354;DHT22;6746;50.892;4.064;2022-07-04T06:53:23;22.40;99.90
13354;DHT22;6746;50.892;4.064;2022-07-04T06:55:51;22.60;99.90
13354;DHT22;6746;50.892;4.064;2022-07-04T06:58:20;22.30;99.90
13354;DHT22;6746;50.892;4.064;2022-07-04T07:00:59;22.50;99.90
13354;DHT22;6746;50.892;4.064;2022-07-04T07:03:47;22.60;99.90
13354;DHT22;6746;50.892;4.064;2022-07-04T07:06:35;22.50;99.90
13354;DHT22;6746;50.892;4.064;2022-07-04T07:09:13;22.50;99.90
13354;DHT22;6746;50.892;4.064;2022-07-04T07:11:51;22.50;99.90
13354;DHT22;6746;50.892;4.064;2022-07-04T07:14:29;22.60;99.90
13354;DHT22;6746;50.892;4.064;2022-07-04T07:17:03;22.80;99.90
13354;DHT22;6746;50.892;4.064;2022-07-04T07:19:32;22.80;99.90
13354;DHT22;6746;50.892;4.064;2022-07-04T07:22:01;22.90;99.90
13354;DHT22;6746;50.892;4.064;2022-07-04T07:24:30;23.10;99.90
13354;DHT22;6746;50.892;4.064;2022-07-04T07:27:02;23.00;99.90
13354;DHT22;6746;50.892;4.064;2022-07-04T07:29:31;23.20;99.90
13354;DHT22;6746;50.892;4.064;2022-07-04T07:32:09;23.20;99.90
13354;DHT22;6746;50.892;4.064;2022-07-04T07:34:47;23.30;99.90
13354;DHT22;6746;50.892;4.064;2022-07-04T07:37:25;23.30;99.90
13354;DHT22;6746;50.892;4.064;2022-07-04T07:40:04;23.40;99.90
13354;DHT22;6746;50.892;4.064;2022-07-04T07:42:40;23.40;99.90
13354;DHT22;6746;50.892;4.064;2022-07-04T07:45:09;23.60;99.90
13354;DHT22;6746;50.892;4.064;2022-07-04T07:47:37;23.70;99.90
13354;DHT22;6746;50.892;4.064;2022-07-04T07:50:07;23.40;99.90
13354;DHT22;6746;50.892;4.064;2022-07-04T07:52:45;23.60;99.90
13354;DHT22;6746;50.892;4.064;2022-07-04T07:55:14;23.80;99.90
13354;DHT22;6746;50.892;4.064;2022-07-04T07:57:43;24.00;99.90
13354;DHT22;6746;50.892;4.064;2022-07-04T08:00:12;23.80;99.90
13354;DHT22;6746;50.892;4.064;2022-07-04T08:02:41;23.80;99.90
13354;DHT22;6746;50.892;4.064;2022-07-04T08:05:28;23.80;99.90
13354;DHT22;6746;50.892;4.064;2022-07-04T08:07:57;23.80;99.90
13354;DHT22;6746;50.892;4.064;2022-07-04T08:10:26;23.90;99.90
13354;DHT22;6746;50.892;4.064;2022-07-04T08:12:58;24.10;99.90
13354;DHT22;6746;50.892;4.064;2022-07-04T08:15:30;24.10;99.90
13354;DHT22;6746;50.892;4.064;2022-07-04T08:18:01;24.00;99.90
13354;DHT22;6746;50.892;4.064;2022-07-04T08:20:35;24.20;99.90
13354;DHT22;6746;50.892;4.064;2022-07-04T08:23:04;24.30;99.90
13354;DHT22;6746;50.892;4.064;2022-07-04T08:25:42;24.40;99.90
13354;DHT22;6746;50.892;4.064;2022-07-04T08:28:19;24.60;99.90
13354;DHT22;6746;50.892;4.064;2022-07-04T08:30:47;24.50;99.90
13354;DHT22;6746;50.892;4.064;2022-07-04T08:33:24;24.70;99.90
13354;DHT22;6746;50.892;4.064;2022-07-04T08:35:55;24.70;99.90
13354;DHT22;6746;50.892;4.064;2022-07-04T08:38:34;24.80;99.90
13354;DHT22;6746;50.892;4.064;2022-07-04T08:41:15;24.90;99.90
13354;DHT22;6746;50.892;4.064;2022-07-04T08:43:55;25.20;99.90
13354;DHT22;6746;50.892;4.064;2022-07-04T08:46:39;25.20;99.90
13354;DHT22;6746;50.892;4.064;2022-07-04T08:49:11;25.20;99.90
13354;DHT22;6746;50.892;4.064;2022-07-04T08:51:52;25.30;99.90
13354;DHT22;6746;50.892;4.064;2022-07-04T08:54:24;25.40;99.90
13354;DHT22;6746;50.892;4.064;2022-07-04T08:57:10;25.30;99.90
13354;DHT22;6746;50.892;4.064;2022-07-04T08:59:57;25.30;99.90
13354;DHT22;6746;50.892;4.064;2022-07-04T09:02:35;25.60;99.90
13354;DHT22;6746;50.892;4.064;2022-07-04T09:05:16;25.70;99.90
13354;DHT22;6746;50.892;4.064;2022-07-04T09:07:45;25.60;99.90
13354;DHT22;6746;50.892;4.064;2022-07-04T09:10:22;25.80;99.90
13354;DHT22;6746;50.892;4.064;2022-07-04T09:12:50;25.50;99.90
13354;DHT22;6746;50.892;4.064;2022-07-04T09:15:27;25.60;99.90
13354;DHT22;6746;50.892;4.064;2022-07-04T09:17:56;25.80;99.90
13354;DHT22;6746;50.892;4.064;2022-07-04T09:20:28;25.90;99.90
13354;DHT22;6746;50.892;4.064;2022-07-04T09:22:56;26.10;99.90
13354;DHT22;6746;50.892;4.064;2022-07-04T09:25:25;26.20;99.90
13354;DHT22;6746;50.892;4.064;2022-07-04T09:27:55;26.40;99.90
13354;DHT22;6746;50.892;4.064;2022-07-04T09:30:33;26.20;99.90
13354;DHT22;6746;50.892;4.064;2022-07-04T09:33:11;25.80;99.90
13354;DHT22;6746;50.892;4.064;2022-07-04T09:35:42;25.40;99.90
13354;DHT22;6746;50.892;4.064;2022-07-04T09:38:11;25.60;99.90
13354;DHT22;6746;50.892;4.064;2022-07-04T09:40:52;25.70;99.90
13354;DHT22;6746;50.892;4.064;2022-07-04T09:43:35;25.30;99.90
13354;DHT22;6746;50.892;4.064;2022-07-04T09:46:04;25.70;99.90
13354;DHT22;6746;50.892;4.064;2022-07-04T09:48:49;26.20;99.90
13354;DHT22;6746;50.892;4.064;2022-07-04T09:54:13;26.90;99.90
13354;DHT22;6746;50.892;4.064;2022-07-04T09:56:47;27.00;99.90
13354;DHT22;6746;50.892;4.064;2022-07-04T09:59:20;26.80;99.90
13354;DHT22;6746;50.892;4.064;2022-07-04T10:01:49;26.70;99.90
13354;DHT22;6746;50.892;4.064;2022-07-04T10:04:47;26.60;99.90
13354;DHT22;6746;50.892;4.064;2022-07-04T10:07:39;26.10;99.90
13354;DHT22;6746;50.892;4.064;2022-07-04T10:13:09;25.60;99.90
13354;DHT22;6746;50.892;4.064;2022-07-04T10:15:39;26.00;99.90
13354;DHT22;6746;50.892;4.064;2022-07-04T10:18:07;26.00;99.90
13354;DHT22;6746;50.892;4.064;2022-07-04T10:20:38;25.90;99.90
13354;DHT22;6746;50.892;4.064;2022-07-04T10:23:07;25.60;99.90
13354;DHT22;6746;50.892;4.064;2022-07-04T10:25:36;25.70;99.90
13354;DHT22;6746;50.892;4.064;2022-07-04T10:28:15;26.00;99.90
13354;DHT22;6746;50.892;4.064;2022-07-04T10:30:49;26.20;99.90
13354;DHT22;6746;50.892;4.064;2022-07-04T10:33:20;26.00;99.90
13354;DHT22;6746;50.892;4.064;2022-07-04T10:36:01;25.80;99.90
13354;DHT22;6746;50.892;4.064;2022-07-04T10:38:34;26.00;99.90
13354;DHT22;6746;50.892;4.064;2022-07-04T10:41:06;25.70;99.90
13354;DHT22;6746;50.892;4.064;2022-07-04T10:49:01;25.90;99.90
13354;DHT22;6746;50.892;4.064;2022-07-04T10:51:57;26.00;99.90
13354;DHT22;6746;50.892;4.064;2022-07-04T10:54:30;25.80;99.90
13354;DHT22;6746;50.892;4.064;2022-07-04T11:02:30;26.40;99.90
13354;DHT22;6746;50.892;4.064;2022-07-04T11:05:08;26.50;99.90
13354;DHT22;6746;50.892;4.064;2022-07-04T11:18:12;27.20;99.90
13354;DHT22;6746;50.892;4.064;2022-07-04T11:20:37;26.70;99.90
13354;DHT22;6746;50.892;4.064;2022-07-04T11:23:12;26.20;99.90
13354;DHT22;6746;50.892;4.064;2022-07-04T11:25:41;26.30;99.90
13354;DHT22;6746;50.892;4.064;2022-07-04T11:28:26;26.50;99.90
13354;DHT22;6746;50.892;4.064;2022-07-04T11:30:57;26.60;99.90
13354;DHT22;6746;50.892;4.064;2022-07-04T11:33:32;26.60;99.90
13354;DHT22;6746;50.892;4.064;2022-07-04T11:36:09;26.80;99.90
13354;DHT22;6746;50.892;4.064;2022-07-04T11:38:56;26.50;99.90
13354;DHT22;6746;50.892;4.064;2022-07-04T11:41:41;26.70;99.90
13354;DHT22;6746;50.892;4.064;2022-07-04T11:44:37;26.90;99.90
13354;DHT22;6746;50.892;4.064;2022-07-04T11:47:37;26.60;99.90
13354;DHT22;6746;50.892;4.064;2022-07-04T11:50:12;26.60;99.90
13354;DHT22;6746;50.892;4.064;2022-07-04T11:52:59;26.80;99.90
13354;DHT22;6746;50.892;4.064;2022-07-04T11:55:37;26.90;99.90
13354;DHT22;6746;50.892;4.064;2022-07-04T11:58:15;26.90;99.90
13354;DHT22;6746;50.892;4.064;2022-07-04T12:00:43;26.80;99.90
13354;DHT22;6746;50.892;4.064;2022-07-04T12:03:12;26.90;99.90
13354;DHT22;6746;50.892;4.064;2022-07-04T12:06:00;26.60;99.90
13354;DHT22;6746;50.892;4.064;2022-07-04T12:08:31;26.70;99.90
13354;DHT22;6746;50.892;4.064;2022-07-04T12:11:00;26.70;99.90
13354;DHT22;6746;50.892;4.064;2022-07-04T12:13:34;26.40;99.90
13354;DHT22;6746;50.892;4.064;2022-07-04T12:16:05;26.20;99.90
13354;DHT22;6746;50.892;4.064;2022-07-04T12:18:41;26.00;99.90
13354;DHT22;6746;50.892;4.064;2022-07-04T12:21:11;26.20;99.90
13354;DHT22;6746;50.892;4.064;2022-07-04T12:23:54;26.10;99.90
13354;DHT22;6746;50.892;4.064;2022-07-04T12:26:31;26.30;99.90
13354;DHT22;6746;50.892;4.064;2022-07-04T12:29:09;26.50;99.90
13354;DHT22;6746;50.892;4.064;2022-07-04T12:31:52;26.70;99.90
13354;DHT22;6746;50.892;4.064;2022-07-04T12:34:35;26.60;99.90
13354;DHT22;6746;50.892;4.064;2022-07-04T12:37:23;26.80;99.90
13354;DHT22;6746;50.892;4.064;2022-07-04T12:40:08;26.70;99.90
13354;DHT22;6746;50.892;4.064;2022-07-04T12:42:47;26.50;99.90
13354;DHT22;6746;50.892;4.064;2022-07-04T12:45:26;26.30;99.90
13354;DHT22;6746;50.892;4.064;2022-07-04T12:48:03;26.00;99.90
13354;DHT22;6746;50.892;4.064;2022-07-04T12:50:32;26.00;99.90
13354;DHT22;6746;50.892;4.064;2022-07-04T12:53:01;25.90;99.90
13354;DHT22;6746;50.892;4.064;2022-07-04T12:55:45;25.70;99.90
13354;DHT22;6746;50.892;4.064;2022-07-04T12:58:26;25.80;99.90
13354;DHT22;6746;50.892;4.064;2022-07-04T13:00:55;26.10;99.90
13354;DHT22;6746;50.892;4.064;2022-07-04T13:03:31;26.40;99.90
13354;DHT22;6746;50.892;4.064;2022-07-04T13:06:00;26.70;99.90
13354;DHT22;6746;50.892;4.064;2022-07-04T13:08:28;26.90;99.90
13354;DHT22;6746;50.892;4.064;2022-07-04T13:10:57;26.80;99.90
13354;DHT22;6746;50.892;4.064;2022-07-04T13:13:52;26.40;99.90
13354;DHT22;6746;50.892;4.064;2022-07-04T13:16:21;26.50;99.90
13354;DHT22;6746;50.892;4.064;2022-07-04T13:19:09;26.60;99.90
13354;DHT22;6746;50.892;4.064;2022-07-04T13:21:47;26.50;99.90
13354;DHT22;6746;50.892;4.064;2022-07-04T13:24:25;26.70;99.90
13354;DHT22;6746;50.892;4.064;2022-07-04T13:26:54;27.00;99.90
13354;DHT22;6746;50.892;4.064;2022-07-04T13:29:22;26.90;99.90
13354;DHT22;6746;50.892;4.064;2022-07-04T13:31:52;26.70;99.90
13354;DHT22;6746;50.892;4.064;2022-07-04T13:34:21;26.60;99.90
13354;DHT22;6746;50.892;4.064;2022-07-04T13:36:52;26.70;99.90
13354;DHT22;6746;50.892;4.064;2022-07-04T13:39:24;26.70;99.90
13354;DHT22;6746;50.892;4.064;2022-07-04T13:41:53;26.50;99.90
13354;DHT22;6746;50.892;4.064;2022-07-04T13:44:21;26.20;99.90
13354;DHT22;6746;50.892;4.064;2022-07-04T13:46:53;26.50;99.90
13354;DHT22;6746;50.892;4.064;2022-07-04T13:49:22;26.60;99.90
13354;DHT22;6746;50.892;4.064;2022-07-04T13:51:51;26.90;99.90
13354;DHT22;6746;50.892;4.064;2022-07-04T13:54:20;26.60;99.90
13354;DHT22;6746;50.892;4.064;2022-07-04T13:56:49;26.70;99.90
13354;DHT22;6746;50.892;4.064;2022-07-04T13:59:18;26.60;99.90
13354;DHT22;6746;50.892;4.064;2022-07-04T14:01:47;26.30;99.90
13354;DHT22;6746;50.892;4.064;2022-07-04T14:04:16;26.50;99.90
13354;DHT22;6746;50.892;4.064;2022-07-04T14:06:48;26.60;99.90
13354;DHT22;6746;50.892;4.064;2022-07-04T14:09:17;26.90;99.90
13354;DHT22;6746;50.892;4.064;2022-07-04T14:11:49;26.90;99.90
13354;DHT22;6746;50.892;4.064;2022-07-04T14:14:18;27.10;99.90
13354;DHT22;6746;50.892;4.064;2022-07-04T14:16:56;27.10;99.90
13354;DHT22;6746;50.892;4.064;2022-07-04T14:19:34;26.80;99.90
13354;DHT22;6746;50.892;4.064;2022-07-04T14:22:03;26.60;99.90
13354;DHT22;6746;50.892;4.064;2022-07-04T14:24:32;26.70;99.90
13354;DHT22;6746;50.892;4.064;2022-07-04T14:27:01;26.60;99.90
13354;DHT22;6746;50.892;4.064;2022-07-04T14:29:30;26.50;99.90
13354;DHT22;6746;50.892;4.064;2022-07-04T14:32:02;26.30;99.90
13354;DHT22;6746;50.892;4.064;2022-07-04T14:34:30;26.10;99.90
13354;DHT22;6746;50.892;4.064;2022-07-04T14:37:07;26.00;99.90
13354;DHT22;6746;50.892;4.064;2022-07-04T14:39:35;26.00;99.90
13354;DHT22;6746;50.892;4.064;2022-07-04T14:42:14;26.20;99.90
13354;DHT22;6746;50.892;4.064;2022-07-04T14:44:52;26.30;99.90
13354;DHT22;6746;50.892;4.064;2022-07-04T14:47:40;26.10;99.90
13354;DHT22;6746;50.892;4.064;2022-07-04T14:50:11;26.30;99.90
13354;DHT22;6746;50.892;4.064;2022-07-04T14:52:40;26.30;99.90
13354;DHT22;6746;50.892;4.064;2022-07-04T14:55:12;26.50;99.90
13354;DHT22;6746;50.892;4.064;2022-07-04T14:57:41;26.60;99.90
13354;DHT22;6746;50.892;4.064;2022-07-04T15:00:15;26.80;99.90
13354;DHT22;6746;50.892;4.064;2022-07-04T15:02:44;26.70;99.90
13354;DHT22;6746;50.892;4.064;2022-07-04T15:05:18;26.90;99.90
13354;DHT22;6746;50.892;4.064;2022-07-04T15:07:50;26.80;99.90
13354;DHT22;6746;50.892;4.064;2022-07-04T15:10:27;26.80;99.90
13354;DHT22;6746;50.892;4.064;2022-07-04T15:13:04;26.80;99.90
13354;DHT22;6746;50.892;4.064;2022-07-04T15:15:42;26.70;99.90
13354;DHT22;6746;50.892;4.064;2022-07-04T15:18:13;26.90;99.90
13354;DHT22;6746;50.892;4.064;2022-07-04T15:20:42;26.70;99.90
13354;DHT22;6746;50.892;4.064;2022-07-04T15:23:34;26.50;99.90
13354;DHT22;6746;50.892;4.064;2022-07-04T15:26:20;26.40;99.90
13354;DHT22;6746;50.892;4.064;2022-07-04T15:28:49;26.50;99.90
13354;DHT22;6746;50.892;4.064;2022-07-04T15:31:19;26.50;99.90
13354;DHT22;6746;50.892;4.064;2022-07-04T15:33:57;26.60;99.90
13354;DHT22;6746;50.892;4.064;2022-07-04T15:36:26;26.50;99.90
13354;DHT22;6746;50.892;4.064;2022-07-04T15:38:57;26.60;99.90
13354;DHT22;6746;50.892;4.064;2022-07-04T15:41:35;26.70;99.90
13354;DHT22;6746;50.892;4.064;2022-07-04T15:44:23;26.60;99.90
13354;DHT22;6746;50.892;4.064;2022-07-04T15:47:01;26.30;99.90
13354;DHT22;6746;50.892;4.064;2022-07-04T15:49:46;26.30;99.90
13354;DHT22;6746;50.892;4.064;2022-07-04T15:52:28;26.20;99.90
13354;DHT22;6746;50.892;4.064;2022-07-04T15:55:06;26.50;99.90
13354;DHT22;6746;50.892;4.064;2022-07-04T15:57:47;26.60;99.90
13354;DHT22;6746;50.892;4.064;2022-07-04T16:00:35;26.70;99.90
13354;DHT22;6746;50.892;4.064;2022-07-04T16:03:15;27.00;99.90
13354;DHT22;6746;50.892;4.064;2022-07-04T16:05:49;27.00;99.90
13354;DHT22;6746;50.892;4.064;2022-07-04T16:08:18;27.00;99.90
13354;DHT22;6746;50.892;4.064;2022-07-04T16:10:47;27.10;99.90
13354;DHT22;6746;50.892;4.064;2022-07-04T16:13:16;26.80;99.90
13354;DHT22;6746;50.892;4.064;2022-07-04T16:15:45;26.70;99.90
13354;DHT22;6746;50.892;4.064;2022-07-04T16:18:14;26.70;99.90
13354;DHT22;6746;50.892;4.064;2022-07-04T16:20:45;26.50;99.90
13354;DHT22;6746;50.892;4.064;2022-07-04T16:23:17;26.50;99.90
13354;DHT22;6746;50.892;4.064;2022-07-04T16:25:46;26.60;99.90
13354;DHT22;6746;50.892;4.064;2022-07-04T16:28:15;26.40;99.90
13354;DHT22;6746;50.892;4.064;2022-07-04T16:30:53;26.20;99.90
13354;DHT22;6746;50.892;4.064;2022-07-04T16:33:22;25.80;99.90
13354;DHT22;6746;50.892;4.064;2022-07-04T16:35:50;24.90;99.90
13354;DHT22;6746;50.892;4.064;2022-07-04T16:38:24;24.50;99.90
13354;DHT22;6746;50.892;4.064;2022-07-04T16:40:54;24.40;99.90
13354;DHT22;6746;50.892;4.064;2022-07-04T16:43:23;24.20;99.90
13354;DHT22;6746;50.892;4.064;2022-07-04T16:45:52;24.00;99.90
13354;DHT22;6746;50.892;4.064;2022-07-04T16:48:21;23.70;99.90
13354;DHT22;6746;50.892;4.064;2022-07-04T16:50:50;23.50;99.90
13354;DHT22;6746;50.892;4.064;2022-07-04T16:53:24;23.40;99.90
13354;DHT22;6746;50.892;4.064;2022-07-04T16:55:53;23.30;99.90
13354;DHT22;6746;50.892;4.064;2022-07-04T16:58:21;23.40;99.90
13354;DHT22;6746;50.892;4.064;2022-07-04T17:00:50;23.40;99.90
13354;DHT22;6746;50.892;4.064;2022-07-04T17:03:34;23.60;99.90
13354;DHT22;6746;50.892;4.064;2022-07-04T17:06:12;23.60;99.90